KWRL

Worland Municipal Airport

Worland, Wyoming, USA
KWRL 260534Z 2606/2706 34018G27KT P6SM VCSH SCT050 BKN080 FM260800 32011KT P6SM SCT070 FM261600 VRB05KT P6SM SKC FM270100 15006KT P6SM SKC
Issued Valid From Valid To
Apr-26 @ 05:34 UTC
(24 minutes ago)
Apr-26 @ 06:00 UTC
(in 2 minutes)
Apr-27 @ 06:00 UTC
(in 24 hours)
Apr-26 @ 06:00 to Apr-26 @ 08:00
KWRL 260534Z 2606/2706 34018G27KT P6SM VCSH SCT050 BKN080
Wind Visibility Clouds
340° at 18 knots
 Gusting to 27 knots
Greater than 6 miles
  • Scattered at 5,000' AGL
  • Broken at 8,000' AGL
From Apr-26 @ 08:00 to Apr-26 @ 16:00
FM260800 32011KT P6SM SCT070
Wind Visibility Clouds
320° at 11 knots Greater than 6 miles
  • Scattered at 7,000' AGL
From Apr-26 @ 16:00 to Apr-27 @ 01:00
FM261600 VRB05KT P6SM SKC
Wind Visibility Clouds
Variable at 5 knots Greater than 6 miles
  • Clear skies
From Apr-27 @ 01:00 to Apr-27 @ 06:00
FM270100 15006KT P6SM SKC
Wind Visibility Clouds
150° at 6 knots Greater than 6 miles
  • Clear skies
KWRL 260534Z 2606/2706 34018G27KT P6SM VCSH SCT050 BKN080 FM260800 32011KT P6SM SCT070 FM261600 VRB05KT P6SM SKC FM270100 15006KT P6SM SKC
Issued Apr-26 @ 05:34 UTC
(24 minutes ago)
Valid From Apr-26 @ 06:00 UTC
(in 2 minutes)
Valid To Apr-27 @ 06:00 UTC
(in 24 hours)
Apr-26 @ 06:00 - Apr-26 @ 08:00
Wind Visibility
340° at 18 knots
 Gusting to 27 knots
Greater than 6 miles
Clouds
  • Scattered at 5,000' AGL
  • Broken at 8,000' AGL
From Apr-26 @ 08:00 - Apr-26 @ 16:00
Wind Visibility
320° at 11 knots Greater than 6 miles
Clouds
  • Scattered at 7,000' AGL
From Apr-26 @ 16:00 - Apr-27 @ 01:00
Wind Visibility
Variable at 5 knots Greater than 6 miles
Clouds
  • Clear skies
From Apr-27 @ 01:00 - Apr-27 @ 06:00
Wind Visibility
150° at 6 knots Greater than 6 miles
Clouds
  • Clear skies